Dan Fighter — OVUE2 — position and weather

sailwx.info

Track history (hours):
 
Tides and Currents Weather Stations Pressure Air Temp Water Temp Dewpoint Dewpoint Depression Visibility Wind Speed Wind Dir Waves Ship Positions

Dan Fighter

Last reported at 2017-Dec-11 16:59 UTC. Time now 2017-Dec-13 05:39 UTC.
Position N 57°17' W 005°43'.

Length 64 m; draft 3.1 m.

Type: Cargo ship. MMSI: 220386978.

Date/timePositionNaut miles runAvg speedWind from/ knotsBaromVisibWave heightAir tempDewpointWater temp
2017-Dec-11 16:59N 57°17' W 005°43'0 0.0
2017-Dec-11 16:29N 57°17' W 005°43'0 0.0
2017-Dec-11 15:59N 57°17' W 005°43'0 0.0
2017-Dec-11 15:29N 57°17' W 005°43'0 0.0
2017-Dec-11 14:59N 57°17' W 005°43'0 0.0
2017-Dec-11 14:30N 57°17' W 005°43'0 0.0
2017-Dec-11 13:59N 57°17' W 005°43'0 0.0
2017-Dec-11 13:29N 57°17' W 005°43'0 0.0
2017-Dec-11 12:59N 57°17' W 005°43'0 0.0
2017-Dec-11 12:29N 57°17' W 005°43'0 0.0
2017-Dec-11 11:59N 57°17' W 005°43'0 0.0
2017-Dec-11 11:29N 57°17' W 005°43'0 0.0
2017-Dec-11 10:59N 57°17' W 005°43'0 0.0
2017-Dec-11 10:30N 57°17' W 005°43'0 0.0
2017-Dec-11 10:00N 57°17' W 005°43'0 0.0
2017-Dec-11 09:29N 57°17' W 005°43'0 0.0
2017-Dec-11 08:59N 57°17' W 005°43'0 0.0
2017-Dec-11 08:26N 57°17' W 005°43'0 0.0
2017-Dec-11 08:00N 57°17' W 005°43'0 0.0
2017-Dec-11 07:29N 57°17' W 005°43'0 0.0
2017-Dec-11 06:59N 57°17' W 005°43'0 0.0
2017-Dec-11 06:14N 57°17' W 005°43'0 0.0
2017-Dec-11 05:56N 57°17' W 005°43'0 0.0
2017-Dec-11 05:26N 57°17' W 005°43'0 0.0
2017-Dec-11 04:56N 57°17' W 005°43'0 0.0
2017-Dec-11 04:29N 57°17' W 005°43'0 0.0
2017-Dec-11 03:56N 57°17' W 005°43'0 0.0
2017-Dec-11 03:29N 57°17' W 005°43'0 0.0
2017-Dec-11 02:57N 57°17' W 005°43'0 0.0
2017-Dec-11 02:29N 57°17' W 005°43'0 0.0
2017-Dec-11 02:00N 57°17' W 005°43'0 0.0
2017-Dec-11 01:29N 57°17' W 005°43'0 0.0
2017-Dec-11 01:00N 57°17' W 005°43'0 0.0
2017-Dec-11 00:29N 57°17' W 005°43'0 0.0
2017-Dec-10 23:59N 57°17' W 005°43'0 0.0
2017-Dec-10 23:29N 57°17' W 005°43'0 0.0
2017-Dec-10 22:59N 57°17' W 005°43'0 0.0
2017-Dec-10 22:30N 57°17' W 005°43'0 0.0
2017-Dec-10 21:57N 57°17' W 005°43'0 0.0
2017-Dec-10 21:26N 57°17' W 005°43'0 0.0
2017-Dec-10 20:56N 57°17' W 005°43'0 0.0
2017-Dec-10 20:26N 57°17' W 005°43'0 0.0
2017-Dec-10 19:56N 57°17' W 005°43'0 0.0
2017-Dec-10 19:26N 57°17' W 005°43'0 0.0
2017-Dec-10 18:59N 57°17' W 005°43'0 0.0
2017-Dec-10 18:30N 57°17' W 005°43'0 0.0
2017-Dec-10 17:57N 57°17' W 005°43'0 0.0
2017-Dec-10 17:29N 57°17' W 005°43'0 0.0
2017-Dec-10 16:59N 57°17' W 005°43'0 0.0
2017-Dec-10 16:27N 57°17' W 005°43'0 0.0
2017-Dec-10 15:56N 57°17' W 005°43'0 0.0
2017-Dec-10 15:29N 57°17' W 005°43'0 0.0
2017-Dec-10 14:59N 57°17' W 005°43'0 0.0
2017-Dec-10 14:30N 57°17' W 005°43'0 0.0
2017-Dec-10 13:56N 57°17' W 005°43'0 0.0
2017-Dec-10 13:26N 57°17' W 005°43'0 0.0
2017-Dec-10 13:00N 57°17' W 005°43'0 0.0
2017-Dec-10 12:29N 57°17' W 005°43'0 0.0
2017-Dec-10 12:00N 57°17' W 005°43'2 4.8
2017-Dec-10 11:30N 57°16' W 005°39'46 4.8
2017-Dec-10 01:50N 56°30' W 005°42'3 7.8
2017-Dec-10 01:30N 56°28' W 005°39'3 6.2
2017-Dec-10 01:00N 56°25' W 005°38'44 8.0
2017-Dec-09 19:32N 55°43' W 005°59'0 8.4
2017-Dec-09 19:30N 55°43' W 005°59'4 8.9
2017-Dec-09 19:00N 55°39' W 005°55'5 9.1
2017-Dec-09 18:27N 55°34' W 005°52'13 9.8
2017-Dec-09 17:07N 55°21' W 005°52'110.6
2017-Dec-09 17:00N 55°20' W 005°52'6 9.8
2017-Dec-09 16:22N 55°14' W 005°49'16 7.9
2017-Dec-09 14:22N 54°58' W 005°42'3 7.2
2017-Dec-09 14:00N 54°56' W 005°41'3 7.1
2017-Dec-09 13:30N 54°52' W 005°40'4 7.2
2017-Dec-09 13:00N 54°49' W 005°40'4 7.4
2017-Dec-09 12:30N 54°45' W 005°41'3 5.2
2017-Dec-09 11:58N 54°43' W 005°45'0 0.0
2017-Dec-09 11:28N 54°43' W 005°45'0 0.0
2017-Dec-09 10:58N 54°43' W 005°45'0 0.0
2017-Dec-09 10:28N 54°43' W 005°45'0 0.0
2017-Dec-09 09:58N 54°43' W 005°45'0 0.0
2017-Dec-09 09:28N 54°43' W 005°45'0 0.0
2017-Dec-09 08:58N 54°43' W 005°45'0 0.0
2017-Dec-09 08:28N 54°43' W 005°45'0 0.0
2017-Dec-09 07:58N 54°43' W 005°45'0 0.0
2017-Dec-09 07:28N 54°43' W 005°45'0 0.0
2017-Dec-09 06:58N 54°43' W 005°45'0 0.0
2017-Dec-09 06:31N 54°43' W 005°45'1 1.2
2017-Dec-09 06:01N 54°43' W 005°44'0 0.2
2017-Dec-09 05:28N 54°43' W 005°44'0 0.0
2017-Dec-09 04:58N 54°43' W 005°43'0 0.0
2017-Dec-09 04:28N 54°43' W 005°43'0 0.0
2017-Dec-09 03:58N 54°43' W 005°43'0 0.0
2017-Dec-09 03:28N 54°43' W 005°44'0 0.0
2017-Dec-09 02:58N 54°43' W 005°44'0 0.0
2017-Dec-09 02:28N 54°43' W 005°44'0 0.0
2017-Dec-09 01:58N 54°43' W 005°44'0 0.1
2017-Dec-09 01:28N 54°43' W 005°44'0 0.0
2017-Dec-09 00:58N 54°43' W 005°44'0 0.1
2017-Dec-09 00:28N 54°43' W 005°44'0 0.0
2017-Dec-08 23:58N 54°43' W 005°44'0 0.0
2017-Dec-08 23:28N 54°43' W 005°44'0 0.0
2017-Dec-08 22:58N 54°43' W 005°44'0 0.1
2017-Dec-08 22:30N 54°43' W 005°44'4 7.3
2017-Dec-08 22:00N 54°43' W 005°37'4 7.4
2017-Dec-08 21:31N 54°43' W 005°31'2 5.0
2017-Dec-08 21:01N 54°41' W 005°27'3 7.0
2017-Dec-08 20:31N 54°38' W 005°26'4 7.9
2017-Dec-08 20:00N 54°34' W 005°24'3 7.0
2017-Dec-08 19:30N 54°31' W 005°23'3 6.4
2017-Dec-08 19:01N 54°28' W 005°22'3 6.8
2017-Dec-08 18:30N 54°24' W 005°21'7 9.0
2017-Dec-08 17:45N 54°18' W 005°27'2 9.6
2017-Dec-08 17:30N 54°17' W 005°30'9 9.3
2017-Dec-08 16:32N 54°10' W 005°40'1 8.9
2017-Dec-08 16:27N 54°09' W 005°41'4 8.9
2017-Dec-08 16:00N 54°06' W 005°45'6 9.2
2017-Dec-08 15:18N 54°01' W 005°52'3 9.3
2017-Dec-08 15:00N 53°59' W 005°55'4 8.5
2017-Dec-08 14:30N 53°56' W 006°00'5 8.5
2017-Dec-08 13:58N 53°52' W 006°03'4 8.7
2017-Dec-08 13:29N 53°48' W 006°01'5 8.9
2017-Dec-08 12:54N 53°43' W 005°60'30 1.1
2017-Dec-07 10:34N 53°13' W 005°58'0 7.2
2017-Dec-07 10:30N 53°14' W 005°58'4 7.2
2017-Dec-07 09:59N 53°17' W 005°59'3 7.1
2017-Dec-07 09:30N 53°21' W 005°59'4 7.2
2017-Dec-07 09:00N 53°24' W 005°58'4 7.5
2017-Dec-07 08:30N 53°28' W 005°56'4 8.0
2017-Dec-07 08:00N 53°32' W 005°56'6 8.5
2017-Dec-07 07:18N 53°38' W 005°57'3 8.8
2017-Dec-07 06:59N 53°40' W 005°58'4 8.8
2017-Dec-07 06:30N 53°45' W 006°00'4 8.9
2017-Dec-07 06:00N 53°49' W 006°02'4 8.4
2017-Dec-07 05:30N 53°53' W 006°03'4 8.2
2017-Dec-07 05:00N 53°57' W 005°60'4 8.0
2017-Dec-07 04:30N 53°59' W 005°54'4 7.9
2017-Dec-07 04:00N 54°02' W 005°50'4 7.6
2017-Dec-07 03:30N 54°05' W 005°46'4 7.1
2017-Dec-07 03:00N 54°07' W 005°41'3 6.4
2017-Dec-07 02:30N 54°10' W 005°38'3 6.1
2017-Dec-07 02:00N 54°12' W 005°34'3 5.6
2017-Dec-07 01:30N 54°14' W 005°31'2 4.6
2017-Dec-07 01:00N 54°16' W 005°29'2 4.8
2017-Dec-07 00:30N 54°18' W 005°27'2 4.3
2017-Dec-07 00:00N 54°20' W 005°25'2 4.0
2017-Dec-06 23:30N 54°22' W 005°23'2 4.4
2017-Dec-06 23:01N 54°24' W 005°21'2 3.9
2017-Dec-06 22:30N 54°26' W 005°21'2 4.7
2017-Dec-06 22:00N 54°28' W 005°22'3 6.0
2017-Dec-06 21:30N 54°31' W 005°23'3 6.9
2017-Dec-06 21:00N 54°34' W 005°24'  
2017-Dec-04 01:44N 55°16' W 005°42'1 4.8
2017-Dec-04 01:29N 55°16' W 005°44'2 3.6
2017-Dec-04 01:00N 55°17' W 005°47'2 3.3
2017-Dec-04 00:30N 55°17' W 005°49'2 3.1
2017-Dec-04 00:00N 55°18' W 005°51'2 3.5
2017-Dec-03 23:30N 55°20' W 005°51'2 4.8
2017-Dec-03 23:00N 55°22' W 005°52'3 5.8
2017-Dec-03 22:30N 55°25' W 005°52'3 6.5
2017-Dec-03 22:00N 55°29' W 005°51'3 6.7
2017-Dec-03 21:30N 55°32' W 005°51'3 6.9
2017-Dec-03 21:00N 55°35' W 005°50'4 7.2
2017-Dec-03 20:30N 55°39' W 005°50'4 7.3
2017-Dec-03 20:00N 55°43' W 005°49'4 7.2
2017-Dec-03 19:30N 55°46' W 005°48'4 7.3
2017-Dec-03 19:00N 55°50' W 005°47'5 8.5
2017-Dec-03 18:23N 55°55' W 005°47'27 7.9
2017-Dec-03 14:57N 56°22' W 005°40'4 8.0
2017-Dec-03 14:30N 56°25' W 005°38'42 1.5
2017-Dec-02 10:14N 57°07' W 005°47'2 9.3
2017-Dec-02 10:00N 57°09' W 005°45'6 9.7
2017-Dec-02 09:26N 57°13' W 005°39'3 8.1
2017-Dec-02 09:00N 57°16' W 005°41'1 1.7
2017-Dec-02 08:29N 57°17' W 005°43'0 0.0
2017-Dec-02 07:59N 57°17' W 005°43'0 0.0
2017-Dec-02 07:29N 57°17' W 005°43'0 0.0
2017-Dec-02 06:59N 57°17' W 005°43'0 0.0
2017-Dec-02 06:29N 57°17' W 005°43'0 0.0
2017-Dec-02 05:59N 57°17' W 005°43'0 0.0
2017-Dec-02 05:29N 57°17' W 005°43'0 0.0
2017-Dec-02 04:59N 57°17' W 005°43'0 0.0
2017-Dec-02 04:29N 57°17' W 005°43'0 0.0
2017-Dec-02 03:59N 57°17' W 005°43'0 0.0
2017-Dec-02 03:29N 57°17' W 005°43'0 0.0
2017-Dec-02 02:59N 57°17' W 005°43'0 0.0
2017-Dec-02 02:29N 57°17' W 005°43'0 0.0
2017-Dec-02 01:59N 57°17' W 005°43'0 0.0
2017-Dec-02 01:29N 57°17' W 005°43'0 0.0
2017-Dec-02 00:59N 57°17' W 005°43'0 0.0
2017-Dec-02 00:29N 57°17' W 005°43'0 0.0
2017-Dec-01 23:59N 57°17' W 005°43'0 0.0
2017-Dec-01 23:29N 57°17' W 005°43'0 0.0
2017-Dec-01 22:59N 57°17' W 005°43'0 0.0
2017-Dec-01 22:23N 57°17' W 005°43'0 0.0
2017-Dec-01 21:59N 57°17' W 005°43'0 0.0
2017-Dec-01 21:29N 57°17' W 005°43'0 0.0
2017-Dec-01 20:59N 57°17' W 005°43'0 0.0
2017-Dec-01 20:29N 57°17' W 005°43'0 0.0
2017-Dec-01 19:59N 57°17' W 005°43'0 0.0
2017-Dec-01 19:29N 57°17' W 005°43'0 0.0
2017-Dec-01 18:59N 57°17' W 005°43'0 0.0
2017-Dec-01 18:29N 57°17' W 005°43'0 0.0
2017-Dec-01 17:59N 57°17' W 005°43'0 0.0
2017-Dec-01 17:29N 57°17' W 005°43'  
Track history (hours):
 
Tides and Currents Weather Stations Pressure Air Temp Water Temp Dewpoint Dewpoint Depression Visibility Wind Speed Wind Dir Waves Ship Positions

Dan Fighter

Last reported at 2017-Dec-11 16:59 UTC. Time now 2017-Dec-13 05:39 UTC.
Position N 57°17' W 005°43'.

Length 64 m; draft 3.1 m.

Type: Cargo ship. MMSI: 220386978.

Date/timePositionNaut miles runAvg speedWind from/ knotsBaromVisibWave heightAir tempDewpointWater temp
2017-Dec-11 16:59N 57°17' W 005°43'0 0.0
2017-Dec-11 16:29N 57°17' W 005°43'0 0.0
2017-Dec-11 15:59N 57°17' W 005°43'0 0.0
2017-Dec-11 15:29N 57°17' W 005°43'0 0.0
2017-Dec-11 14:59N 57°17' W 005°43'0 0.0
2017-Dec-11 14:30N 57°17' W 005°43'0 0.0
2017-Dec-11 13:59N 57°17' W 005°43'0 0.0
2017-Dec-11 13:29N 57°17' W 005°43'0 0.0
2017-Dec-11 12:59N 57°17' W 005°43'0 0.0
2017-Dec-11 12:29N 57°17' W 005°43'0 0.0
2017-Dec-11 11:59N 57°17' W 005°43'0 0.0
2017-Dec-11 11:29N 57°17' W 005°43'0 0.0
2017-Dec-11 10:59N 57°17' W 005°43'0 0.0
2017-Dec-11 10:30N 57°17' W 005°43'0 0.0
2017-Dec-11 10:00N 57°17' W 005°43'0 0.0
2017-Dec-11 09:29N 57°17' W 005°43'0 0.0
2017-Dec-11 08:59N 57°17' W 005°43'0 0.0
2017-Dec-11 08:26N 57°17' W 005°43'0 0.0
2017-Dec-11 08:00N 57°17' W 005°43'0 0.0
2017-Dec-11 07:29N 57°17' W 005°43'0 0.0
2017-Dec-11 06:59N 57°17' W 005°43'0 0.0
2017-Dec-11 06:14N 57°17' W 005°43'0 0.0
2017-Dec-11 05:56N 57°17' W 005°43'0 0.0
2017-Dec-11 05:26N 57°17' W 005°43'0 0.0
2017-Dec-11 04:56N 57°17' W 005°43'0 0.0
2017-Dec-11 04:29N 57°17' W 005°43'0 0.0
2017-Dec-11 03:56N 57°17' W 005°43'0 0.0
2017-Dec-11 03:29N 57°17' W 005°43'0 0.0
2017-Dec-11 02:57N 57°17' W 005°43'0 0.0
2017-Dec-11 02:29N 57°17' W 005°43'0 0.0
2017-Dec-11 02:00N 57°17' W 005°43'0 0.0
2017-Dec-11 01:29N 57°17' W 005°43'0 0.0
2017-Dec-11 01:00N 57°17' W 005°43'0 0.0
2017-Dec-11 00:29N 57°17' W 005°43'0 0.0
2017-Dec-10 23:59N 57°17' W 005°43'0 0.0
2017-Dec-10 23:29N 57°17' W 005°43'0 0.0
2017-Dec-10 22:59N 57°17' W 005°43'0 0.0
2017-Dec-10 22:30N 57°17' W 005°43'0 0.0
2017-Dec-10 21:57N 57°17' W 005°43'0 0.0
2017-Dec-10 21:26N 57°17' W 005°43'0 0.0
2017-Dec-10 20:56N 57°17' W 005°43'0 0.0
2017-Dec-10 20:26N 57°17' W 005°43'0 0.0
2017-Dec-10 19:56N 57°17' W 005°43'0 0.0
2017-Dec-10 19:26N 57°17' W 005°43'0 0.0
2017-Dec-10 18:59N 57°17' W 005°43'0 0.0
2017-Dec-10 18:30N 57°17' W 005°43'0 0.0
2017-Dec-10 17:57N 57°17' W 005°43'0 0.0
2017-Dec-10 17:29N 57°17' W 005°43'0 0.0
2017-Dec-10 16:59N 57°17' W 005°43'0 0.0
2017-Dec-10 16:27N 57°17' W 005°43'0 0.0
2017-Dec-10 15:56N 57°17' W 005°43'0 0.0
2017-Dec-10 15:29N 57°17' W 005°43'0 0.0
2017-Dec-10 14:59N 57°17' W 005°43'0 0.0
2017-Dec-10 14:30N 57°17' W 005°43'0 0.0
2017-Dec-10 13:56N 57°17' W 005°43'0 0.0
2017-Dec-10 13:26N 57°17' W 005°43'0 0.0
2017-Dec-10 13:00N 57°17' W 005°43'0 0.0
2017-Dec-10 12:29N 57°17' W 005°43'0 0.0
2017-Dec-10 12:00N 57°17' W 005°43'2 4.8
2017-Dec-10 11:30N 57°16' W 005°39'46 4.8
2017-Dec-10 01:50N 56°30' W 005°42'3 7.8
2017-Dec-10 01:30N 56°28' W 005°39'3 6.2
2017-Dec-10 01:00N 56°25' W 005°38'44 8.0
2017-Dec-09 19:32N 55°43' W 005°59'0 8.4
2017-Dec-09 19:30N 55°43' W 005°59'4 8.9
2017-Dec-09 19:00N 55°39' W 005°55'5 9.1
2017-Dec-09 18:27N 55°34' W 005°52'13 9.8
2017-Dec-09 17:07N 55°21' W 005°52'110.6
2017-Dec-09 17:00N 55°20' W 005°52'6 9.8
2017-Dec-09 16:22N 55°14' W 005°49'16 7.9
2017-Dec-09 14:22N 54°58' W 005°42'3 7.2
2017-Dec-09 14:00N 54°56' W 005°41'3 7.1
2017-Dec-09 13:30N 54°52' W 005°40'4 7.2
2017-Dec-09 13:00N 54°49' W 005°40'4 7.4
2017-Dec-09 12:30N 54°45' W 005°41'3 5.2
2017-Dec-09 11:58N 54°43' W 005°45'0 0.0
2017-Dec-09 11:28N 54°43' W 005°45'0 0.0
2017-Dec-09 10:58N 54°43' W 005°45'0 0.0
2017-Dec-09 10:28N 54°43' W 005°45'0 0.0
2017-Dec-09 09:58N 54°43' W 005°45'0 0.0
2017-Dec-09 09:28N 54°43' W 005°45'0 0.0
2017-Dec-09 08:58N 54°43' W 005°45'0 0.0
2017-Dec-09 08:28N 54°43' W 005°45'0 0.0
2017-Dec-09 07:58N 54°43' W 005°45'0 0.0
2017-Dec-09 07:28N 54°43' W 005°45'0 0.0
2017-Dec-09 06:58N 54°43' W 005°45'0 0.0
2017-Dec-09 06:31N 54°43' W 005°45'1 1.2
2017-Dec-09 06:01N 54°43' W 005°44'0 0.2
2017-Dec-09 05:28N 54°43' W 005°44'0 0.0
2017-Dec-09 04:58N 54°43' W 005°43'0 0.0
2017-Dec-09 04:28N 54°43' W 005°43'0 0.0
2017-Dec-09 03:58N 54°43' W 005°43'0 0.0
2017-Dec-09 03:28N 54°43' W 005°44'0 0.0
2017-Dec-09 02:58N 54°43' W 005°44'0 0.0
2017-Dec-09 02:28N 54°43' W 005°44'0 0.0
2017-Dec-09 01:58N 54°43' W 005°44'0 0.1
2017-Dec-09 01:28N 54°43' W 005°44'0 0.0
2017-Dec-09 00:58N 54°43' W 005°44'0 0.1
2017-Dec-09 00:28N 54°43' W 005°44'0 0.0
2017-Dec-08 23:58N 54°43' W 005°44'0 0.0
2017-Dec-08 23:28N 54°43' W 005°44'0 0.0
2017-Dec-08 22:58N 54°43' W 005°44'0 0.1
2017-Dec-08 22:30N 54°43' W 005°44'4 7.3
2017-Dec-08 22:00N 54°43' W 005°37'4 7.4
2017-Dec-08 21:31N 54°43' W 005°31'2 5.0
2017-Dec-08 21:01N 54°41' W 005°27'3 7.0
2017-Dec-08 20:31N 54°38' W 005°26'4 7.9
2017-Dec-08 20:00N 54°34' W 005°24'3 7.0
2017-Dec-08 19:30N 54°31' W 005°23'3 6.4
2017-Dec-08 19:01N 54°28' W 005°22'3 6.8
2017-Dec-08 18:30N 54°24' W 005°21'7 9.0
2017-Dec-08 17:45N 54°18' W 005°27'2 9.6
2017-Dec-08 17:30N 54°17' W 005°30'9 9.3
2017-Dec-08 16:32N 54°10' W 005°40'1 8.9
2017-Dec-08 16:27N 54°09' W 005°41'4 8.9
2017-Dec-08 16:00N 54°06' W 005°45'6 9.2
2017-Dec-08 15:18N 54°01' W 005°52'3 9.3
2017-Dec-08 15:00N 53°59' W 005°55'4 8.5
2017-Dec-08 14:30N 53°56' W 006°00'5 8.5
2017-Dec-08 13:58N 53°52' W 006°03'4 8.7
2017-Dec-08 13:29N 53°48' W 006°01'5 8.9
2017-Dec-08 12:54N 53°43' W 005°60'30 1.1
2017-Dec-07 10:34N 53°13' W 005°58'0 7.2
2017-Dec-07 10:30N 53°14' W 005°58'4 7.2
2017-Dec-07 09:59N 53°17' W 005°59'3 7.1
2017-Dec-07 09:30N 53°21' W 005°59'4 7.2
2017-Dec-07 09:00N 53°24' W 005°58'4 7.5
2017-Dec-07 08:30N 53°28' W 005°56'4 8.0
2017-Dec-07 08:00N 53°32' W 005°56'6 8.5
2017-Dec-07 07:18N 53°38' W 005°57'3 8.8
2017-Dec-07 06:59N 53°40' W 005°58'4 8.8
2017-Dec-07 06:30N 53°45' W 006°00'4 8.9
2017-Dec-07 06:00N 53°49' W 006°02'4 8.4
2017-Dec-07 05:30N 53°53' W 006°03'4 8.2
2017-Dec-07 05:00N 53°57' W 005°60'4 8.0
2017-Dec-07 04:30N 53°59' W 005°54'4 7.9
2017-Dec-07 04:00N 54°02' W 005°50'4 7.6
2017-Dec-07 03:30N 54°05' W 005°46'4 7.1
2017-Dec-07 03:00N 54°07' W 005°41'3 6.4
2017-Dec-07 02:30N 54°10' W 005°38'3 6.1
2017-Dec-07 02:00N 54°12' W 005°34'3 5.6
2017-Dec-07 01:30N 54°14' W 005°31'2 4.6
2017-Dec-07 01:00N 54°16' W 005°29'2 4.8
2017-Dec-07 00:30N 54°18' W 005°27'2 4.3
2017-Dec-07 00:00N 54°20' W 005°25'2 4.0
2017-Dec-06 23:30N 54°22' W 005°23'2 4.4
2017-Dec-06 23:01N 54°24' W 005°21'2 3.9
2017-Dec-06 22:30N 54°26' W 005°21'2 4.7
2017-Dec-06 22:00N 54°28' W 005°22'3 6.0
2017-Dec-06 21:30N 54°31' W 005°23'3 6.9
2017-Dec-06 21:00N 54°34' W 005°24'  
2017-Dec-04 01:44N 55°16' W 005°42'1 4.8
2017-Dec-04 01:29N 55°16' W 005°44'2 3.6
2017-Dec-04 01:00N 55°17' W 005°47'2 3.3
2017-Dec-04 00:30N 55°17' W 005°49'2 3.1
2017-Dec-04 00:00N 55°18' W 005°51'2 3.5
2017-Dec-03 23:30N 55°20' W 005°51'2 4.8
2017-Dec-03 23:00N 55°22' W 005°52'3 5.8
2017-Dec-03 22:30N 55°25' W 005°52'3 6.5
2017-Dec-03 22:00N 55°29' W 005°51'3 6.7
2017-Dec-03 21:30N 55°32' W 005°51'3 6.9
2017-Dec-03 21:00N 55°35' W 005°50'4 7.2
2017-Dec-03 20:30N 55°39' W 005°50'4 7.3
2017-Dec-03 20:00N 55°43' W 005°49'4 7.2
2017-Dec-03 19:30N 55°46' W 005°48'4 7.3
2017-Dec-03 19:00N 55°50' W 005°47'5 8.5
2017-Dec-03 18:23N 55°55' W 005°47'27 7.9
2017-Dec-03 14:57N 56°22' W 005°40'4 8.0
2017-Dec-03 14:30N 56°25' W 005°38'42 1.5
2017-Dec-02 10:14N 57°07' W 005°47'2 9.3
2017-Dec-02 10:00N 57°09' W 005°45'6 9.7
2017-Dec-02 09:26N 57°13' W 005°39'3 8.1
2017-Dec-02 09:00N 57°16' W 005°41'1 1.7
2017-Dec-02 08:29N 57°17' W 005°43'0 0.0
2017-Dec-02 07:59N 57°17' W 005°43'0 0.0
2017-Dec-02 07:29N 57°17' W 005°43'0 0.0
2017-Dec-02 06:59N 57°17' W 005°43'0 0.0
2017-Dec-02 06:29N 57°17' W 005°43'0 0.0
2017-Dec-02 05:59N 57°17' W 005°43'0 0.0
2017-Dec-02 05:29N 57°17' W 005°43'0 0.0
2017-Dec-02 04:59N 57°17' W 005°43'0 0.0
2017-Dec-02 04:29N 57°17' W 005°43'0 0.0
2017-Dec-02 03:59N 57°17' W 005°43'0 0.0
2017-Dec-02 03:29N 57°17' W 005°43'0 0.0
2017-Dec-02 02:59N 57°17' W 005°43'0 0.0
2017-Dec-02 02:29N 57°17' W 005°43'0 0.0
2017-Dec-02 01:59N 57°17' W 005°43'0 0.0
2017-Dec-02 01:29N 57°17' W 005°43'0 0.0
2017-Dec-02 00:59N 57°17' W 005°43'0 0.0
2017-Dec-02 00:29N 57°17' W 005°43'0 0.0
2017-Dec-01 23:59N 57°17' W 005°43'0 0.0
2017-Dec-01 23:29N 57°17' W 005°43'0 0.0
2017-Dec-01 22:59N 57°17' W 005°43'0 0.0
2017-Dec-01 22:23N 57°17' W 005°43'0 0.0
2017-Dec-01 21:59N 57°17' W 005°43'0 0.0
2017-Dec-01 21:29N 57°17' W 005°43'0 0.0
2017-Dec-01 20:59N 57°17' W 005°43'0 0.0
2017-Dec-01 20:29N 57°17' W 005°43'0 0.0
2017-Dec-01 19:59N 57°17' W 005°43'0 0.0
2017-Dec-01 19:29N 57°17' W 005°43'0 0.0
2017-Dec-01 18:59N 57°17' W 005°43'0 0.0
2017-Dec-01 18:29N 57°17' W 005°43'0 0.0
2017-Dec-01 17:59N 57°17' W 005°43'0 0.0
2017-Dec-01 17:29N 57°17' W 005°43'  

Dump ship's entire track history